Time;durP1;ratioP1;P1;durP2;ratioP2;P2;SDS_P1;SDS_P2;PMS_P1;PMS_P2;Temp;Humidity;BMP_temperature;BMP_pressure;BME280_temperature;BME280_humidity;BME280_pressure;Samples;Min_cycle;Max_cycle;Signal;HPM_P1;HPM_P2
2022/03/07 05:19:24;;;;;;;43.25;19.37;;;;;;;-3.01;74.46;100688.84;5603553;31;144637;-87
2022/03/07 05:22:28;;;;;;;40.88;19.42;;;;;;;-3.06;74.60;100690.56;5592011;32;33711;-87
2022/03/07 05:25:31;;;;;;;46.37;20.27;;;;;;;-3.03;74.11;100690.56;5588351;31;33898;-87
2022/03/07 05:28:35;;;;;;;40.72;19.73;;;;;;;-3.01;74.05;100691.44;5586869;31;34809;-87
2022/03/07 05:31:37;;;;;;;44.50;20.98;;;;;;;-2.99;74.11;100689.75;5589238;31;33881;-85
2022/03/07 05:34:40;;;;;;;44.10;20.73;;;;;;;-2.96;73.98;100695.84;5586547;31;33514;-85
2022/03/07 05:37:43;;;;;;;45.22;20.35;;;;;;;-2.99;74.30;100697.56;5586411;32;33748;-85
2022/03/07 05:40:46;;;;;;;36.97;19.35;;;;;;;-2.92;73.84;100689.84;5587868;31;33937;-85
2022/03/07 05:43:48;;;;;;;39.20;20.10;;;;;;;-2.85;73.36;100695.09;5586355;31;33871;-85
2022/03/07 05:46:51;;;;;;;41.10;19.67;;;;;;;-2.79;73.25;100690.81;5586753;31;34059;-85
2022/03/07 05:49:54;;;;;;;43.65;20.55;;;;;;;-2.77;73.02;100700.38;5587479;31;35009;-86
2022/03/07 05:52:57;;;;;;;43.15;19.87;;;;;;;-2.71;72.44;100694.37;5585700;32;34020;-86
2022/03/07 05:56:00;;;;;;;41.37;20.37;;;;;;;-2.76;72.54;100691.72;5586361;32;33652;-85
2022/03/07 05:59:03;;;;;;;41.20;20.33;;;;;;;-2.74;72.82;100702.13;5587033;32;34677;-85
2022/03/07 06:02:06;;;;;;;39.83;19.62;;;;;;;-2.66;72.41;100699.62;5585607;31;34373;-86
2022/03/07 06:05:10;;;;;;;39.05;20.62;;;;;;;-2.52;72.28;100702.34;5585838;32;34445;-85
2022/03/07 06:08:13;;;;;;;42.30;20.33;;;;;;;-2.45;71.89;100706.75;5586615;32;33703;-85
2022/03/07 06:11:16;;;;;;;39.75;20.40;;;;;;;-2.39;71.56;100708.50;5586184;32;33960;-85
2022/03/07 06:14:18;;;;;;;41.72;21.52;;;;;;;-2.38;71.41;100712.84;5586968;31;33929;-87
2022/03/07 06:17:21;;;;;;;45.65;20.73;;;;;;;-2.40;71.50;100710.25;5585746;32;33631;-86
2022/03/07 06:20:26;;;;;;;40.72;19.95;;;;;;;-2.31;71.01;100709.47;5587065;32;34275;-86
2022/03/07 06:23:29;;;;;;;38.40;19.75;;;;;;;-2.22;70.70;100708.69;5588993;31;34927;-86
2022/03/07 06:26:31;;;;;;;41.40;19.23;;;;;;;-2.13;70.40;100718.25;5577848;31;34450;-85
2022/03/07 06:29:34;;;;;;;39.30;20.25;;;;;;;-1.90;69.34;100716.72;5576995;31;34022;-85
2022/03/07 06:32:37;;;;;;;41.50;19.62;;;;;;;-1.85;68.65;100716.78;5572877;32;33778;-85
2022/03/07 06:35:48;;;;;;;41.47;19.50;;;;;;;-1.98;68.63;100715.78;5582917;32;34542;-85
2022/03/07 06:38:51;;;;;;;39.05;19.73;;;;;;;-1.81;68.31;100718.50;5573016;32;34074;-85
2022/03/07 06:41:55;;;;;;;42.65;20.25;;;;;;;-1.64;67.84;100712.56;5554333;32;34041;-85
2022/03/07 06:44:58;;;;;;;36.50;19.90;;;;;;;-1.67;67.60;100720.31;5563289;32;35036;-85
2022/03/07 06:48:01;;;;;;;35.55;19.67;;;;;;;-1.70;67.74;100722.91;5561483;32;34489;-86
2022/03/07 06:51:03;;;;;;;37.72;19.35;;;;;;;-1.90;68.22;100731.47;5558612;32;34213;-86
2022/03/07 06:54:07;;;;;;;39.35;19.98;;;;;;;-1.68;68.00;100731.59;5569653;32;34180;-86
2022/03/07 06:57:10;;;;;;;37.65;19.77;;;;;;;-1.36;66.69;100730.91;5567374;32;35284;-86
2022/03/07 07:00:15;;;;;;;38.80;19.60;;;;;;;-1.55;66.92;100732.56;5559539;32;34007;-87
2022/03/07 07:03:20;;;;;;;40.92;20.20;;;;;;;-1.53;66.70;100723.91;5551826;32;33671;-85
2022/03/07 07:06:23;;;;;;;43.00;20.48;;;;;;;-1.67;67.12;100730.72;5561384;32;33968;-85
2022/03/07 07:09:26;;;;;;;39.60;20.10;;;;;;;-1.41;66.53;100723.09;5565056;32;34029;-85
2022/03/07 07:12:29;;;;;;;37.92;19.92;;;;;;;-1.49;67.00;100727.38;5567807;32;33940;-85
2022/03/07 07:15:32;;;;;;;43.15;20.98;;;;;;;-1.40;66.94;100724.81;5556168;32;34162;-85
2022/03/07 07:18:35;;;;;;;41.92;21.17;;;;;;;-1.18;65.90;100722.34;5557246;32;33958;-84
2022/03/07 07:21:38;;;;;;;39.08;19.75;;;;;;;-0.71;64.87;100723.34;5565149;32;33577;-85
2022/03/07 07:24:42;;;;;;;43.33;20.27;;;;;;;-0.54;63.33;100722.53;5562352;32;34096;-85
2022/03/07 07:27:44;;;;;;;39.22;20.02;;;;;;;-0.30;62.59;100733.88;5566001;32;33880;-89
2022/03/07 07:30:47;;;;;;;42.42;20.10;;;;;;;-0.60;63.37;100739.00;5569438;32;33976;-89
2022/03/07 07:33:50;;;;;;;46.17;21.80;;;;;;;-0.30;62.28;100744.28;5572389;32;34705;-88
2022/03/07 07:36:53;;;;;;;41.03;20.33;;;;;;;-0.82;63.92;100748.50;5557788;32;33637;-89
2022/03/07 07:39:55;;;;;;;38.08;19.58;;;;;;;-0.84;64.79;100745.03;5566222;31;33612;-87
2022/03/07 07:42:59;;;;;;;37.75;19.83;;;;;;;-0.49;63.54;100746.00;5569320;32;34683;-85
2022/03/07 07:46:06;;;;;;;37.97;19.62;;;;;;;-0.51;62.97;100745.97;5574047;32;34121;-84
2022/03/07 07:49:09;;;;;;;39.40;19.52;;;;;;;-0.52;63.37;100757.28;5569864;32;34211;-85
2022/03/07 07:52:12;;;;;;;52.15;23.75;;;;;;;-0.05;61.38;100749.53;5568832;32;34000;-85
2022/03/07 07:55:15;;;;;;;42.78;21.10;;;;;;;-0.29;61.76;100754.69;5565535;32;33992;-85
2022/03/07 07:58:17;;;;;;;38.70;20.98;;;;;;;-0.41;62.55;100755.56;5551118;32;34228;-85
2022/03/07 08:01:21;;;;;;;40.92;21.30;;;;;;;-0.39;62.84;100775.56;5567180;32;34300;-84
2022/03/07 08:04:24;;;;;;;40.65;20.90;;;;;;;-0.42;63.06;100786.84;5566420;32;34320;-84
2022/03/07 08:07:27;;;;;;;41.00;20.67;;;;;;;-0.45;62.97;100798.12;5560111;32;34658;-85
2022/03/07 08:10:30;;;;;;;45.33;22.65;;;;;;;-0.56;63.30;100794.62;5573521;31;34204;-85
2022/03/07 08:13:33;;;;;;;42.50;20.30;;;;;;;-0.69;63.92;100791.12;5578397;31;33575;-85
2022/03/07 08:16:36;;;;;;;38.22;21.30;;;;;;;-0.76;64.34;100795.41;5572678;31;33958;-85
2022/03/07 08:19:38;;;;;;;41.67;20.85;;;;;;;-0.65;64.13;100792.00;5560888;32;34949;-85
2022/03/07 08:22:43;;;;;;;37.10;20.77;;;;;;;-0.90;64.73;100787.53;5570034;32;34188;-84
2022/03/07 08:25:45;;;;;;;44.90;21.55;;;;;;;-0.63;64.00;100788.53;5557097;31;33490;-85
2022/03/07 08:28:48;;;;;;;38.47;20.52;;;;;;;-0.76;64.39;100778.94;5565595;32;35054;-86
2022/03/07 08:31:51;;;;;;;42.60;21.80;;;;;;;-0.67;64.29;100771.12;5564472;32;33827;-85
2022/03/07 08:34:55;;;;;;;41.47;21.77;;;;;;;0.04;61.41;100761.72;5554751;32;33855;-84
2022/03/07 08:37:58;;;;;;;39.38;20.50;;;;;;;0.61;60.05;100766.00;5567162;32;34670;-85
2022/03/07 08:41:01;;;;;;;37.80;20.00;;;;;;;1.02;58.33;100761.50;5574306;32;34046;-84
2022/03/07 08:44:04;;;;;;;37.72;20.65;;;;;;;1.23;57.26;100762.28;5551255;32;34397;-85
2022/03/07 08:47:08;;;;;;;38.80;19.60;;;;;;;1.28;57.15;100760.50;5560495;32;34046;-86
2022/03/07 08:50:11;;;;;;;36.55;20.73;;;;;;;1.81;55.54;100762.81;5560860;32;34549;-85
2022/03/07 08:53:16;;;;;;;42.50;19.95;;;;;;;1.39;56.64;100768.28;5573499;32;34464;-86
2022/03/07 08:56:19;;;;;;;43.03;21.42;;;;;;;1.28;56.40;100779.69;5582082;32;34316;-84
2022/03/07 08:59:29;;;;;;;39.65;21.20;;;;;;;0.86;58.16;100776.37;5578943;32;33981;-85
2022/03/07 09:02:31;;;;;;;43.30;22.10;;;;;;;0.71;59.09;100772.94;5566379;32;35200;-84
2022/03/07 09:05:35;;;;;;;39.97;20.77;;;;;;;0.56;59.34;100768.63;5554326;32;33925;-84
2022/03/07 09:08:56;;;;;;;40.65;22.20;;;;;;;1.17;57.89;100758.81;5562706;32;33164;-84
2022/03/07 09:12:22;;;;;;;42.72;20.62;;;;;;;1.11;57.52;100752.75;5562407;32;34749;-84
2022/03/07 09:15:25;;;;;;;38.20;20.75;;;;;;;1.19;57.52;100749.25;5561510;32;34139;-88
2022/03/07 09:18:28;;;;;;;37.92;21.35;;;;;;;1.65;55.97;100756.84;5567148;32;33580;-88
2022/03/07 09:21:31;;;;;;;41.92;21.80;;;;;;;2.00;55.01;100748.72;5570049;32;34019;-89
2022/03/07 09:24:34;;;;;;;42.10;21.23;;;;;;;1.96;54.39;100754.00;5569735;32;34065;-85
2022/03/07 09:27:37;;;;;;;35.78;20.00;;;;;;;2.29;53.54;100744.09;5564009;32;33528;-85
2022/03/07 09:30:40;;;;;;;38.83;21.02;;;;;;;2.90;52.73;100746.97;5569259;32;33779;-85
2022/03/07 09:33:43;;;;;;;38.58;21.20;;;;;;;3.09;51.25;100754.59;5569614;32;33726;-85
2022/03/07 09:36:46;;;;;;;40.30;21.12;;;;;;;3.21;50.68;100754.44;5569929;32;33664;-83
2022/03/07 09:39:49;;;;;;;37.40;19.95;;;;;;;3.24;50.40;100748.28;5553858;32;34001;-83
2022/03/07 09:42:52;;;;;;;36.88;19.70;;;;;;;2.86;50.85;100755.72;5554170;32;34176;-84
2022/03/07 09:45:55;;;;;;;35.17;19.20;;;;;;;2.24;52.63;100754.63;5567933;32;33937;-84
2022/03/07 09:48:59;;;;;;;36.08;19.70;;;;;;;2.37;53.06;100751.91;5556656;32;34147;-84
2022/03/07 09:52:02;;;;;;;38.45;20.40;;;;;;;2.95;51.60;100749.50;5558907;32;34101;-84
2022/03/07 09:55:07;;;;;;;40.67;20.90;;;;;;;2.14;53.43;100745.09;5562808;32;34937;-84
2022/03/07 09:58:10;;;;;;;37.65;19.80;;;;;;;1.90;54.45;100739.19;5563605;32;34081;-83
2022/03/07 10:01:19;;;;;;;34.47;19.20;;;;;;;1.92;54.15;100747.03;5560156;31;34508;-84
2022/03/07 10:04:24;;;;;;;33.60;18.52;;;;;;;2.04;54.04;100748.69;5568271;32;33884;-83
2022/03/07 10:07:27;;;;;;;35.95;17.42;;;;;;;2.34;53.41;100752.78;5570803;32;34274;-84
2022/03/07 10:10:35;;;;;;;30.75;16.62;;;;;;;2.01;53.18;100755.69;5569813;32;33828;-84
2022/03/07 10:13:49;;;;;;;32.85;17.80;;;;;;;2.33;52.74;100747.56;5565183;32;33822;-84
2022/03/07 10:16:52;;;;;;;31.75;17.90;;;;;;;1.67;53.82;100757.69;5573912;31;33775;-84
2022/03/07 10:20:03;;;;;;;36.83;17.90;;;;;;;1.35;54.85;100751.75;5572576;32;34393;-84
2022/03/07 10:23:12;;;;;;;33.72;17.92;;;;;;;2.00;54.63;100758.31;5562500;32;33873;-84
2022/03/07 10:26:15;;;;;;;34.15;17.67;;;;;;;2.66;55.44;100748.97;5560506;32;34154;-84
2022/03/07 10:29:20;;;;;;;30.92;17.95;;;;;;;3.14;49.63;100739.69;5551349;32;33869;-84
2022/03/07 10:33:13;;;;;;;38.83;19.85;;;;;;;2.04;52.06;100738.22;5557028;32;34925;-87
2022/03/07 10:36:16;;;;;;;36.95;17.87;;;;;;;2.14;52.68;100738.13;5566918;32;33598;-84
2022/03/07 10:39:25;;;;;;;35.97;18.20;;;;;;;2.31;51.63;100739.72;5569294;32;34240;-84
2022/03/07 10:42:28;;;;;;;36.28;18.10;;;;;;;2.37;51.34;100737.03;5565815;32;34156;-83
2022/03/07 10:45:42;;;;;;;41.20;19.77;;;;;;;2.09;52.20;100732.06;5567790;32;34531;-83
2022/03/07 10:48:45;;;;;;;36.20;19.12;;;;;;;2.13;52.31;100731.16;5553884;32;33997;-83
2022/03/07 10:51:52;;;;;;;36.67;18.58;;;;;;;2.14;52.07;100732.03;5551730;32;34371;-83
2022/03/07 10:54:55;;;;;;;32.67;18.33;;;;;;;2.33;51.84;100721.37;5555677;32;34871;-83
2022/03/07 10:58:09;;;;;;;37.25;18.98;;;;;;;2.36;51.41;100709.13;5566069;32;33870;-83
2022/03/07 11:01:12;;;;;;;37.60;19.98;;;;;;;2.35;51.85;100711.75;5561201;31;33793;-84
2022/03/07 11:04:21;;;;;;;36.13;19.73;;;;;;;2.43;51.89;100708.16;5555815;32;33964;-84
2022/03/07 11:07:24;;;;;;;36.72;18.83;;;;;;;2.24;52.37;100698.78;5561263;32;33906;-85
2022/03/07 11:10:27;;;;;;;34.28;19.20;;;;;;;2.65;50.88;100700.09;5565852;32;33801;-84
2022/03/07 11:13:31;;;;;;;32.60;18.30;;;;;;;2.67;50.38;100689.59;5553223;32;34032;-84
2022/03/07 11:16:35;;;;;;;33.88;18.48;;;;;;;2.70;50.44;100689.53;5569737;32;34420;-84
2022/03/07 11:19:40;;;;;;;33.58;18.02;;;;;;;2.81;50.20;100685.03;5553740;32;34794;-85
2022/03/07 11:22:43;;;;;;;34.40;19.00;;;;;;;3.17;49.26;100670.59;5557938;32;33807;-85
2022/03/07 11:25:48;;;;;;;35.38;19.02;;;;;;;3.12;49.50;100673.28;5571621;31;33810;-85
2022/03/07 11:28:51;;;;;;;32.35;17.75;;;;;;;2.67;50.10;100660.78;5573275;32;34309;-85
2022/03/07 11:32:00;;;;;;;39.45;18.65;;;;;;;3.09;49.39;100666.34;5566596;32;34401;-84
2022/03/07 11:35:03;;;;;;;36.75;18.40;;;;;;;3.15;49.15;100659.25;5562278;32;34196;-85
2022/03/07 11:38:17;;;;;;;32.42;17.85;;;;;;;2.99;49.17;100650.75;5558100;32;34714;-86
2022/03/07 11:41:39;;;;;;;29.75;16.52;;;;;;;3.26;49.20;100652.09;5557632;32;34121;-86
2022/03/07 11:44:44;;;;;;;30.40;16.77;;;;;;;3.57;50.35;100645.53;5567200;32;34241;-84
2022/03/07 11:47:49;;;;;;;29.95;16.77;;;;;;;3.58;47.48;100642.00;5551543;32;34635;-88
2022/03/07 11:50:52;;;;;;;33.17;17.35;;;;;;;3.50;47.16;100647.37;5568169;32;33870;-89
2022/03/07 11:53:57;;;;;;;34.20;16.87;;;;;;;3.39;47.35;100642.31;5570460;32;33648;-89
2022/03/07 11:57:11;;;;;;;29.95;17.12;;;;;;;3.43;46.78;100632.63;5554880;32;34107;-85
2022/03/07 12:00:17;;;;;;;33.40;17.98;;;;;;;2.96;47.99;100635.94;5552097;32;34591;-84
2022/03/07 12:03:24;;;;;;;31.70;17.40;;;;;;;2.76;48.79;100646.69;5566861;32;33940;-85
2022/03/07 12:06:27;;;;;;;31.30;18.45;;;;;;;2.97;48.36;100640.31;5562349;32;33938;-84
2022/03/07 12:09:32;;;;;;;42.92;20.25;;;;;;;2.41;49.61;100638.38;5561365;32;33818;-84
2022/03/07 12:12:36;;;;;;;31.27;18.40;;;;;;;2.74;49.13;100641.47;5562370;32;35162;-84
2022/03/07 12:15:53;;;;;;;34.63;19.25;;;;;;;3.04;48.13;100641.94;5560005;32;33868;-84
2022/03/07 12:19:14;;;;;;;34.53;18.50;;;;;;;2.33;49.73;100634.97;5556865;32;33907;-84
2022/03/07 12:22:20;;;;;;;36.58;19.85;;;;;;;2.35;50.50;100635.81;5566680;32;34132;-84
2022/03/07 12:25:22;;;;;;;36.42;19.73;;;;;;;2.27;50.44;100633.31;5570095;32;33718;-84
2022/03/07 12:28:31;;;;;;;40.55;20.08;;;;;;;2.35;50.45;100625.34;5561900;32;33285;-85
2022/03/07 12:31:34;;;;;;;36.10;19.25;;;;;;;2.04;51.27;100626.56;5552729;32;34294;-85
2022/03/07 12:34:42;;;;;;;36.47;20.08;;;;;;;1.91;50.91;100624.97;5559978;32;34299;-85
2022/03/07 12:37:44;;;;;;;39.65;19.83;;;;;;;1.65;51.78;100624.31;5562760;31;33738;-85
2022/03/07 12:40:48;;;;;;;37.20;20.05;;;;;;;2.10;50.91;100631.72;5560015;32;33674;-85
2022/03/07 12:43:52;;;;;;;36.20;20.02;;;;;;;2.35;50.32;100627.97;5565807;32;33593;-84
2022/03/07 12:46:55;;;;;;;36.70;20.05;;;;;;;2.04;51.35;100629.19;5568634;32;35352;-84
2022/03/07 12:50:01;;;;;;;37.70;19.50;;;;;;;1.91;51.17;100633.66;5561475;32;33542;-84
2022/03/07 12:53:04;;;;;;;41.00;20.60;;;;;;;1.61;51.99;100638.31;5567243;32;34595;-85
2022/03/07 12:56:06;;;;;;;38.60;20.15;;;;;;;1.88;51.18;100634.53;5559771;32;34014;-84
2022/03/07 12:59:11;;;;;;;36.17;19.15;;;;;;;1.81;51.66;100632.03;5565953;32;33860;-84
2022/03/07 13:02:13;;;;;;;35.90;18.95;;;;;;;1.34;52.88;100629.78;5562185;31;33988;-84
2022/03/07 13:05:18;;;;;;;37.20;19.37;;;;;;;1.45;52.61;100632.31;5563467;32;33596;-85
2022/03/07 13:08:21;;;;;;;38.10;19.95;;;;;;;1.40;53.00;100634.13;5552516;32;34560;-88
2022/03/07 13:11:36;;;;;;;34.45;18.35;;;;;;;1.34;53.45;100638.50;5558349;32;32932;-88
2022/03/07 13:14:40;;;;;;;35.00;18.87;;;;;;;1.31;53.08;100629.81;5576602;32;35148;-90
2022/03/07 13:17:44;;;;;;;38.22;17.95;;;;;;;1.31;53.16;100630.66;5554796;32;33720;-87
2022/03/07 13:20:47;;;;;;;36.35;19.10;;;;;;;1.38;53.25;100630.63;5562347;32;34118;-87
2022/03/07 13:23:53;;;;;;;34.47;18.20;;;;;;;1.47;52.92;100630.56;5571619;32;33620;-86
2022/03/07 13:27:01;;;;;;;31.92;17.75;;;;;;;1.67;52.50;100638.25;5561501;32;34350;-87
2022/03/07 13:30:07;;;;;;;33.85;18.10;;;;;;;1.71;51.93;100634.72;5570034;32;34060;-87
2022/03/07 13:33:10;;;;;;;33.17;17.27;;;;;;;1.76;51.46;100642.50;5555966;32;34496;-88
2022/03/07 13:36:37;;;;;;;33.75;17.48;;;;;;;1.53;51.94;100650.56;5561005;32;33712;-88
2022/03/07 13:39:41;;;;;;;32.72;17.75;;;;;;;1.72;51.11;100640.81;5584032;32;34100;-86
2022/03/07 13:42:46;;;;;;;34.50;17.37;;;;;;;1.80;50.97;100640.75;5576510;32;35241;-87
2022/03/07 13:45:49;;;;;;;35.80;17.08;;;;;;;1.46;51.53;100641.91;5558202;32;34175;-88
2022/03/07 13:49:02;;;;;;;37.17;18.35;;;;;;;1.28;52.05;100643.78;5562476;32;33641;-87
2022/03/07 13:52:17;;;;;;;33.75;17.65;;;;;;;1.46;51.39;100634.06;5567724;32;34698;-88
2022/03/07 13:55:20;;;;;;;36.58;17.77;;;;;;;1.53;51.57;100640.97;5570356;32;33875;-87
2022/03/07 13:58:25;;;;;;;28.15;16.15;;;;;;;1.48;51.81;100654.09;5575834;32;34033;-87
2022/03/07 14:01:29;;;;;;;32.95;17.70;;;;;;;1.51;51.22;100642.72;5575012;32;34021;-87
2022/03/07 14:04:38;;;;;;;32.78;17.75;;;;;;;1.16;51.54;100656.94;5565166;32;34158;-85
2022/03/07 14:07:46;;;;;;;38.65;19.17;;;;;;;1.25;51.53;100654.22;5557219;32;34674;-86
2022/03/07 14:11:13;;;;;;;34.42;18.12;;;;;;;1.33;51.57;100648.97;5572402;32;33758;-86
2022/03/07 14:14:19;;;;;;;38.50;20.25;;;;;;;1.27;51.80;100644.66;5572779;32;35035;-90
2022/03/07 14:17:23;;;;;;;40.15;21.25;;;;;;;1.29;52.20;100644.63;5562444;32;34016;-90
2022/03/07 14:20:27;;;;;;;41.05;21.37;;;;;;;1.13;52.85;100642.12;5566150;32;34296;-90
2022/03/07 14:23:30;;;;;;;39.17;20.42;;;;;;;1.46;52.31;100642.75;5561136;32;35322;-86
2022/03/07 14:26:33;;;;;;;37.17;19.75;;;;;;;1.57;51.88;100642.66;5565624;32;35263;-86
2022/03/07 14:29:43;;;;;;;37.25;20.27;;;;;;;1.71;51.48;100650.41;5564911;32;33668;-86
2022/03/07 14:32:46;;;;;;;41.17;21.50;;;;;;;1.48;51.94;100645.38;5564079;32;33794;-86
2022/03/07 14:35:49;;;;;;;39.33;20.58;;;;;;;1.36;52.84;100638.50;5564281;32;34561;-87
2022/03/07 14:38:52;;;;;;;37.22;20.00;;;;;;;1.42;52.60;100632.34;5564669;32;34145;-86
2022/03/07 14:41:57;;;;;;;40.05;19.90;;;;;;;1.68;51.68;100636.50;5566911;32;34535;-86
2022/03/07 14:45:08;;;;;;;39.65;19.87;;;;;;;1.64;51.89;100630.41;5563419;32;34785;-86
2022/03/07 14:48:11;;;;;;;35.85;19.50;;;;;;;1.61;51.80;100630.47;5569422;32;34160;-86
2022/03/07 14:51:14;;;;;;;37.22;18.98;;;;;;;1.96;50.97;100634.47;5561276;32;34275;-86
2022/03/07 14:54:17;;;;;;;37.72;19.48;;;;;;;1.98;50.90;100637.09;5552512;32;34649;-87
2022/03/07 14:57:20;;;;;;;38.13;19.67;;;;;;;1.68;52.14;100639.09;5554764;32;34362;-87
2022/03/07 15:00:23;;;;;;;37.22;19.10;;;;;;;1.74;51.46;100637.31;5563303;32;33888;-87
2022/03/07 15:03:26;;;;;;;37.10;19.27;;;;;;;1.68;51.53;100640.00;5553444;32;34108;-87
2022/03/07 15:06:32;;;;;;;36.72;19.17;;;;;;;1.52;52.00;100638.38;5569184;32;34014;-87
2022/03/07 15:09:35;;;;;;;36.88;19.80;;;;;;;1.38;52.38;100646.31;5570756;32;33961;-87
2022/03/07 15:12:38;;;;;;;38.28;19.35;;;;;;;1.46;52.28;100639.28;5572542;32;34087;-87
2022/03/07 15:15:41;;;;;;;32.55;18.65;;;;;;;1.43;52.24;100641.91;5567199;32;33893;-87
2022/03/07 15:18:44;;;;;;;34.97;19.05;;;;;;;1.65;51.48;100639.16;5573569;32;33737;-88
2022/03/07 15:21:49;;;;;;;35.15;19.90;;;;;;;1.62;51.16;100640.03;5571952;32;34222;-87
2022/03/07 15:24:52;;;;;;;33.85;18.95;;;;;;;1.51;51.22;100642.72;5572599;32;33987;-87
2022/03/07 15:27:55;;;;;;;35.25;18.87;;;;;;;1.43;51.84;100639.31;5572538;32;35344;-87
2022/03/07 15:30:58;;;;;;;36.05;19.05;;;;;;;1.52;51.19;100643.59;5571001;32;35107;-86
2022/03/07 15:34:01;;;;;;;42.03;20.67;;;;;;;1.56;51.28;100645.31;5560542;32;34983;-87
2022/03/07 15:37:04;;;;;;;37.72;19.23;;;;;;;1.67;51.03;100640.87;5569252;32;33842;-88
2022/03/07 15:40:08;;;;;;;38.83;20.12;;;;;;;1.96;50.26;100650.19;5556036;32;34121;-86
2022/03/07 15:43:10;;;;;;;35.85;19.17;;;;;;;1.79;50.54;100647.72;5563844;32;34165;-87
2022/03/07 15:46:18;;;;;;;35.03;19.37;;;;;;;1.74;50.66;100647.78;5567919;32;34104;-86
2022/03/07 15:49:23;;;;;;;36.90;19.62;;;;;;;1.42;51.35;100648.03;5568398;32;34179;-85
2022/03/07 15:52:26;;;;;;;39.25;19.65;;;;;;;1.36;51.62;100656.81;5564660;32;32582;-85
2022/03/07 15:55:29;;;;;;;36.88;19.25;;;;;;;1.17;52.37;100659.50;5568218;32;33641;-86
2022/03/07 15:58:33;;;;;;;42.38;19.67;;;;;;;1.06;52.53;100659.56;5570909;32;34401;-85
2022/03/07 16:01:40;;;;;;;32.80;17.98;;;;;;;1.00;52.11;100667.44;5570489;32;34151;-86
2022/03/07 16:04:43;;;;;;;41.33;20.02;;;;;;;0.92;52.45;100671.84;5570528;32;34106;-87
2022/03/07 16:07:46;;;;;;;39.40;19.37;;;;;;;0.83;52.95;100671.88;5571083;32;34463;-87
2022/03/07 16:10:49;;;;;;;39.67;18.75;;;;;;;0.77;53.08;100664.97;5570790;32;33854;-85
2022/03/07 16:13:52;;;;;;;38.30;19.65;;;;;;;0.69;53.48;100667.59;5572808;32;33996;-90
2022/03/07 16:16:56;;;;;;;37.80;19.20;;;;;;;0.61;53.95;100674.59;5568180;32;34387;-92
2022/03/07 16:19:59;;;;;;;38.13;19.92;;;;;;;0.51;54.11;100677.22;5570756;32;35400;-92
2022/03/07 16:23:02;;;;;;;37.97;19.48;;;;;;;0.46;54.35;100681.59;5572140;32;34234;-87
2022/03/07 16:26:05;;;;;;;37.33;19.55;;;;;;;0.41;54.87;100670.31;5573088;32;33854;-87
2022/03/07 16:29:09;;;;;;;41.03;20.30;;;;;;;0.37;54.83;100681.63;5572596;32;35141;-87
2022/03/07 16:32:11;;;;;;;36.17;19.23;;;;;;;0.34;54.65;100695.56;5573618;32;35469;-86
